Time;durP1;ratioP1;P1;durP2;ratioP2;P2;SDS_P1;SDS_P2;PMS_P1;PMS_P2;Temp;Humidity;BMP_temperature;BMP_pressure;BME280_temperature;BME280_humidity;BME280_pressure;Samples;Min_cycle;Max_cycle;Signal;HPM_P1;HPM_P2
2022/01/03 00:02:23;;;;;;;;;12.00;3.33;;;;;;;;5027606;28;45652;-80
2022/01/03 00:04:48;;;;;;;;;9.25;2.50;;;;;;;;5026322;28;45697;-80
2022/01/03 00:07:16;;;;;;;;;3.75;2.00;;;;;;;;5028260;28;45526;-80
2022/01/03 00:09:42;;;;;;;;;7.50;3.25;;;;;;;;5027760;28;46021;-79
2022/01/03 00:12:08;;;;;;;;;7.25;3.00;;;;;;;;5030880;28;45488;-79
2022/01/03 00:14:34;;;;;;;;;5.75;2.00;;;;;;;;5025602;28;45560;-80
2022/01/03 00:16:59;;;;;;;;;3.75;2.00;;;;;;;;5026267;28;45787;-80
2022/01/03 00:19:24;;;;;;;;;10.50;1.00;;;;;;;;5026272;28;51169;-80
2022/01/03 00:21:52;;;;;;;;;6.67;2.33;;;;;;;;5027199;28;45671;-80
2022/01/03 00:24:23;;;;;;;;;6.50;3.00;;;;;;;;5028156;28;45698;-79
2022/01/03 00:26:54;;;;;;;;;6.50;3.00;;;;;;;;5027784;28;45547;-80
2022/01/03 00:29:22;;;;;;;;;4.25;2.00;;;;;;;;5023316;28;52191;-79
2022/01/03 00:31:47;;;;;;;;;4.00;1.00;;;;;;;;5025203;28;45541;-80
2022/01/03 00:34:13;;;;;;;;;7.00;3.00;;;;;;;;5026694;28;45617;-79
2022/01/03 00:36:39;;;;;;;;;8.50;2.00;;;;;;;;5028510;28;45474;-79
2022/01/03 00:39:07;;;;;;;;;4.00;2.00;;;;;;;;5028460;28;47441;-79
2022/01/03 00:41:36;;;;;;;;;5.00;2.00;;;;;;;;5026947;28;46067;-79
2022/01/03 00:44:01;;;;;;;;;7.25;4.00;;;;;;;;5028095;28;45658;-79
2022/01/03 00:46:27;;;;;;;;;5.00;1.75;;;;;;;;5025045;28;45610;-79
2022/01/03 00:48:53;;;;;;;;;5.50;2.75;;;;;;;;5025043;28;46886;-79
2022/01/03 00:51:19;;;;;;;;;13.25;3.00;;;;;;;;5030415;28;45955;-80
2022/01/03 00:53:48;;;;;;;;;7.75;2.00;;;;;;;;5026039;28;46156;-80
2022/01/03 00:56:17;;;;;;;;;5.00;2.75;;;;;;;;5024709;28;45591;-79
2022/01/03 00:58:49;;;;;;;;;9.25;4.50;;;;;;;;5025532;28;46799;-79
2022/01/03 01:01:14;;;;;;;;;5.75;3.50;;;;;;;;5027183;28;46060;-79
2022/01/03 01:03:41;;;;;;;;;6.75;2.50;;;;;;;;5027338;28;55499;-80
2022/01/03 01:06:07;;;;;;;;;5.00;2.50;;;;;;;;5028559;28;46005;-79
2022/01/03 01:08:34;;;;;;;;;8.25;1.00;;;;;;;;5025554;28;45698;-79
2022/01/03 01:11:01;;;;;;;;;7.25;3.00;;;;;;;;5025176;28;45632;-79
2022/01/03 01:13:26;;;;;;;;;3.50;3.00;;;;;;;;5028457;28;45513;-79
2022/01/03 01:15:51;;;;;;;;;5.00;2.00;;;;;;;;5027482;28;45967;-79
2022/01/03 01:18:16;;;;;;;;;3.25;2.00;;;;;;;;5028378;28;48371;-79
2022/01/03 01:20:42;;;;;;;;;7.00;3.75;;;;;;;;5024287;28;45591;-79
2022/01/03 01:23:09;;;;;;;;;4.75;2.00;;;;;;;;5027331;28;45571;-79
2022/01/03 01:28:00;;;;;;;;;5.50;2.75;;;;;;;;5029435;28;45859;-79
2022/01/03 01:30:27;;;;;;;;;1.25;1.25;;;;;;;;5031962;28;45516;-80
2022/01/03 01:32:52;;;;;;;;;5.00;2.00;;;;;;;;5029173;28;45507;-79
2022/01/03 01:35:23;;;;;;;;;3.67;2.67;;;;;;;;5027553;28;45515;-80
2022/01/03 01:37:52;;;;;;;;;3.25;2.75;;;;;;;;5025158;28;45673;-79
2022/01/03 01:40:17;;;;;;;;;7.50;3.75;;;;;;;;5029361;28;45803;-80
2022/01/03 01:42:46;;;;;;;;;5.50;0.75;;;;;;;;5029617;28;45351;-80
2022/01/03 01:45:14;;;;;;;;;1.25;1.25;;;;;;;;5027674;28;45518;-80
2022/01/03 01:47:40;;;;;;;;;5.75;1.75;;;;;;;;5025473;28;45604;-79
2022/01/03 01:50:07;;;;;;;;;4.75;2.50;;;;;;;;5028133;28;45487;-79
2022/01/03 01:52:34;;;;;;;;;6.75;3.00;;;;;;;;5027963;28;45392;-79
2022/01/03 01:55:00;;;;;;;;;2.00;2.00;;;;;;;;5028737;28;45603;-79
2022/01/03 01:57:34;;;;;;;;;5.50;2.50;;;;;;;;5030783;28;46269;-79
2022/01/03 02:00:06;;;;;;;;;6.25;2.00;;;;;;;;5028661;28;45652;-79
2022/01/03 02:02:35;;;;;;;;;8.75;4.00;;;;;;;;5026991;28;45586;-79
2022/01/03 02:05:03;;;;;;;;;6.25;2.00;;;;;;;;5028215;28;45454;-79
2022/01/03 02:07:45;;;;;;;;;4.25;3.00;;;;;;;;5029110;28;45562;-79
2022/01/03 02:10:12;;;;;;;;;4.75;2.50;;;;;;;;5018780;28;46042;-79
2022/01/03 02:12:38;;;;;;;;;5.50;1.25;;;;;;;;5025464;28;45516;-79
2022/01/03 02:15:08;;;;;;;;;3.50;2.25;;;;;;;;5026096;28;45404;-78
2022/01/03 02:17:33;;;;;;;;;4.00;1.50;;;;;;;;5028874;28;46532;-79
2022/01/03 02:20:06;;;;;;;;;5.25;2.00;;;;;;;;5030166;28;45565;-79
2022/01/03 02:22:35;;;;;;;;;8.75;2.00;;;;;;;;5029809;28;45682;-79
2022/01/03 02:25:01;;;;;;;;;4.75;2.25;;;;;;;;5030652;28;45445;-79
2022/01/03 02:27:26;;;;;;;;;2.00;2.00;;;;;;;;5034036;28;45610;-79
2022/01/03 02:29:51;;;;;;;;;10.00;2.00;;;;;;;;5027284;28;45542;-79
2022/01/03 02:32:19;;;;;;;;;2.00;1.67;;;;;;;;5030515;28;45528;-78
2022/01/03 02:34:44;;;;;;;;;4.00;2.25;;;;;;;;5022664;28;45591;-78
2022/01/03 02:37:09;;;;;;;;;3.00;2.00;;;;;;;;5028633;28;45477;-78
2022/01/03 02:39:34;;;;;;;;;3.33;3.33;;;;;;;;5030103;28;45668;-78
2022/01/03 02:42:01;;;;;;;;;5.50;2.25;;;;;;;;5031625;28;45492;-80
2022/01/03 02:44:26;;;;;;;;;9.67;2.00;;;;;;;;5029842;28;45477;-79
2022/01/03 02:46:52;;;;;;;;;4.25;2.00;;;;;;;;5029112;28;45865;-77
2022/01/03 02:49:17;;;;;;;;;3.00;1.75;;;;;;;;5031873;28;45579;-77
2022/01/03 02:51:45;;;;;;;;;7.00;3.00;;;;;;;;5032015;28;45442;-79
2022/01/03 02:54:11;;;;;;;;;5.25;2.00;;;;;;;;5031856;28;45841;-79
2022/01/03 02:56:36;;;;;;;;;8.00;2.25;;;;;;;;5029620;28;45612;-79
2022/01/03 02:59:10;;;;;;;;;6.00;2.00;;;;;;;;5030010;28;47060;-80
2022/01/03 03:01:35;;;;;;;;;8.00;2.00;;;;;;;;5018114;28;45515;-79
2022/01/03 03:04:00;;;;;;;;;6.00;2.00;;;;;;;;5027988;28;45539;-79
2022/01/03 03:06:29;;;;;;;;;2.00;2.00;;;;;;;;5026652;28;45798;-79
2022/01/03 03:08:54;;;;;;;;;5.00;2.00;;;;;;;;5027724;28;45465;-79
2022/01/03 03:11:19;;;;;;;;;3.00;1.33;;;;;;;;5030122;28;45547;-79
2022/01/03 03:13:44;;;;;;;;;7.00;3.00;;;;;;;;5030147;28;45431;-79
2022/01/03 03:16:10;;;;;;;;;6.00;2.00;;;;;;;;5028388;28;47197;-79
2022/01/03 03:18:35;;;;;;;;;6.00;4.33;;;;;;;;5031907;28;45560;-79
2022/01/03 03:21:00;;;;;;;;;4.33;3.00;;;;;;;;5031070;28;45864;-80
2022/01/03 03:23:27;;;;;;;;;4.50;2.00;;;;;;;;5029653;28;45464;-79
2022/01/03 03:25:52;;;;;;;;;3.50;1.50;;;;;;;;5022775;28;45660;-79
2022/01/03 03:28:17;;;;;;;;;6.00;2.00;;;;;;;;5029397;28;45456;-79
2022/01/03 03:30:47;;;;;;;;;4.00;2.00;;;;;;;;5031166;28;45725;-79
2022/01/03 03:33:19;;;;;;;;;4.50;1.00;;;;;;;;5022093;28;45541;-79
2022/01/03 03:35:46;;;;;;;;;6.25;1.50;;;;;;;;5026959;28;45613;-80
2022/01/03 03:38:11;;;;;;;;;4.25;3.00;;;;;;;;5029148;28;45807;-79
2022/01/03 03:53:00;;;;;;;;;10.00;2.50;;;;;;;;5058253;28;45556;-80
2022/01/03 03:55:26;;;;;;;;;5.33;1.33;;;;;;;;5044679;28;45460;-78
2022/01/03 03:57:51;;;;;;;;;8.00;3.00;;;;;;;;5048157;28;45456;-78
2022/01/03 04:00:17;;;;;;;;;9.67;2.00;;;;;;;;5046872;28;45432;-78
2022/01/03 04:02:43;;;;;;;;;3.25;2.00;;;;;;;;5045035;28;46150;-79
2022/01/03 04:05:08;;;;;;;;;3.33;1.67;;;;;;;;5043112;28;45520;-79
2022/01/03 04:07:34;;;;;;;;;5.00;2.75;;;;;;;;5043042;28;45476;-79
2022/01/03 04:09:59;;;;;;;;;4.25;2.00;;;;;;;;5047463;28;45572;-78
2022/01/03 04:12:24;;;;;;;;;5.67;2.00;;;;;;;;5046144;28;46089;-79
2022/01/03 04:14:50;;;;;;;;;2.33;1.00;;;;;;;;5047806;28;46958;-80
2022/01/03 04:17:15;;;;;;;;;4.33;2.00;;;;;;;;5043115;28;45643;-80
2022/01/03 04:19:40;;;;;;;;;4.00;2.00;;;;;;;;5028014;28;45394;-79
2022/01/03 04:22:06;;;;;;;;;6.00;2.00;;;;;;;;5047562;28;46194;-80
2022/01/03 04:24:31;;;;;;;;;3.00;1.33;;;;;;;;5047334;28;45518;-80
2022/01/03 04:26:56;;;;;;;;;2.00;2.00;;;;;;;;5045078;28;45587;-79
2022/01/03 04:29:22;;;;;;;;;7.67;1.00;;;;;;;;5044539;28;45583;-79
2022/01/03 04:31:47;;;;;;;;;7.25;1.00;;;;;;;;5030913;28;47709;-80
2022/01/03 04:34:13;;;;;;;;;3.00;2.00;;;;;;;;5048447;28;45641;-80
2022/01/03 04:36:38;;;;;;;;;2.50;2.00;;;;;;;;5048779;28;45567;-80
2022/01/03 04:39:04;;;;;;;;;4.00;2.00;;;;;;;;5047873;28;45444;-77
2022/01/03 04:41:30;;;;;;;;;3.75;2.25;;;;;;;;5029078;28;47321;-79
2022/01/03 04:43:55;;;;;;;;;1.75;1.75;;;;;;;;5049015;28;45531;-79
2022/01/03 04:46:20;;;;;;;;;4.33;1.00;;;;;;;;5049390;28;45534;-80
2022/01/03 04:48:45;;;;;;;;;9.00;1.33;;;;;;;;5030288;28;45505;-80
2022/01/03 04:51:11;;;;;;;;;3.67;3.00;;;;;;;;5047027;28;47034;-79
2022/01/03 04:53:39;;;;;;;;;3.50;2.00;;;;;;;;5036020;28;45507;-79
2022/01/03 04:56:05;;;;;;;;;1.50;1.50;;;;;;;;5034633;28;45766;-80
2022/01/03 04:58:30;;;;;;;;;2.00;1.00;;;;;;;;5034260;28;45502;-80
2022/01/03 05:00:55;;;;;;;;;7.00;2.67;;;;;;;;5033975;28;45406;-80
2022/01/03 05:03:20;;;;;;;;;5.33;4.00;;;;;;;;5027098;28;45461;-80
2022/01/03 05:05:45;;;;;;;;;4.00;2.33;;;;;;;;5034592;28;45377;-78
2022/01/03 05:08:11;;;;;;;;;5.33;3.00;;;;;;;;5026607;28;45447;-80
2022/01/03 05:10:36;;;;;;;;;7.00;3.00;;;;;;;;5030675;28;46181;-80
2022/01/03 05:13:02;;;;;;;;;3.00;1.33;;;;;;;;5032207;28;45361;-80
2022/01/03 05:15:27;;;;;;;;;3.50;2.25;;;;;;;;5032646;28;45634;-79
2022/01/03 05:17:52;;;;;;;;;6.67;2.00;;;;;;;;5031962;28;45538;-80
2022/01/03 05:20:17;;;;;;;;;3.00;1.00;;;;;;;;5028078;28;45469;-80
2022/01/03 05:22:43;;;;;;;;;2.00;2.00;;;;;;;;5014382;28;45473;-80
2022/01/03 05:25:08;;;;;;;;;5.25;2.00;;;;;;;;5032974;28;45689;-79
2022/01/03 05:27:34;;;;;;;;;2.00;1.25;;;;;;;;5031800;28;45393;-79
2022/01/03 05:30:00;;;;;;;;;3.75;2.00;;;;;;;;5030573;28;46128;-80
2022/01/03 05:32:25;;;;;;;;;6.25;3.00;;;;;;;;5031877;28;45647;-80
2022/01/03 05:34:50;;;;;;;;;4.00;2.00;;;;;;;;5016616;28;45734;-80
2022/01/03 05:37:16;;;;;;;;;5.00;3.00;;;;;;;;5014208;28;45612;-80
2022/01/03 05:39:41;;;;;;;;;5.67;1.00;;;;;;;;5031623;28;45569;-78
2022/01/03 05:42:06;;;;;;;;;6.67;3.00;;;;;;;;5026132;28;45633;-80
2022/01/03 05:44:31;;;;;;;;;12.00;4.50;;;;;;;;5024920;28;45838;-80
2022/01/03 05:46:57;;;;;;;;;4.33;1.33;;;;;;;;5033050;28;45398;-79
2022/01/03 05:49:22;;;;;;;;;5.00;1.00;;;;;;;;5030654;28;46226;-79
2022/01/03 05:51:47;;;;;;;;;3.67;1.33;;;;;;;;5029643;28;45506;-80
2022/01/03 05:54:12;;;;;;;;;3.00;1.00;;;;;;;;5032563;28;45556;-80
2022/01/03 05:56:37;;;;;;;;;6.00;2.33;;;;;;;;5033761;28;45472;-80
2022/01/03 05:59:07;;;;;;;;;8.00;2.00;;;;;;;;5028938;28;46376;-78
2022/01/03 06:01:32;;;;;;;;;4.00;2.00;;;;;;;;5030930;28;45604;-78
2022/01/03 06:04:12;;;;;;;;;3.25;2.00;;;;;;;;5011370;28;45456;-78
2022/01/03 06:06:53;;;;;;;;;4.00;1.00;;;;;;;;5030471;28;45504;-78
2022/01/03 06:09:19;;;;;;;;;3.50;2.00;;;;;;;;5016851;28;47536;-80
2022/01/03 06:11:44;;;;;;;;;12.75;2.00;;;;;;;;5028856;28;45491;-78
2022/01/03 06:14:09;;;;;;;;;6.00;2.00;;;;;;;;5026807;28;48240;-79
2022/01/03 06:16:34;;;;;;;;;7.33;2.00;;;;;;;;5026899;28;45544;-78
2022/01/03 06:18:59;;;;;;;;;2.33;1.00;;;;;;;;5017410;28;48473;-80
2022/01/03 06:21:25;;;;;;;;;4.00;2.00;;;;;;;;5013982;28;45485;-80
2022/01/03 06:23:50;;;;;;;;;6.67;1.00;;;;;;;;5012073;28;45515;-78
2022/01/03 06:26:15;;;;;;;;;5.67;3.00;;;;;;;;5030625;28;45878;-78
2022/01/03 06:28:40;;;;;;;;;5.33;4.00;;;;;;;;5031858;28;45832;-78
2022/01/03 06:31:05;;;;;;;;;5.67;1.33;;;;;;;;5030624;28;45540;-80
2022/01/03 06:33:31;;;;;;;;;7.67;1.33;;;;;;;;5032211;28;45484;-80
2022/01/03 06:35:56;;;;;;;;;6.67;4.33;;;;;;;;5029931;28;45533;-78
2022/01/03 06:38:21;;;;;;;;;7.00;3.67;;;;;;;;5026410;28;45503;-80
2022/01/03 06:40:46;;;;;;;;;6.33;2.00;;;;;;;;5025035;28;45599;-81
2022/01/03 06:43:11;;;;;;;;;4.33;2.00;;;;;;;;5026694;28;45667;-80
2022/01/03 06:45:37;;;;;;;;;7.33;2.67;;;;;;;;5015526;28;45510;-80
2022/01/03 06:48:02;;;;;;;;;5.00;3.00;;;;;;;;5028063;28;46313;-79
2022/01/03 06:50:30;;;;;;;;;6.00;2.00;;;;;;;;5032043;28;45536;-78
2022/01/03 06:52:55;;;;;;;;;3.00;2.00;;;;;;;;5025221;28;45472;-80
2022/01/03 06:55:21;;;;;;;;;5.33;1.00;;;;;;;;5030685;28;45373;-80
2022/01/03 06:57:46;;;;;;;;;5.67;2.67;;;;;;;;5032948;28;45567;-80
2022/01/03 07:00:12;;;;;;;;;7.25;2.00;;;;;;;;5029996;28;45519;-79
2022/01/03 07:02:42;;;;;;;;;7.00;2.75;;;;;;;;5032677;28;45414;-79
2022/01/03 07:05:08;;;;;;;;;4.50;2.00;;;;;;;;5031207;28;45539;-80
2022/01/03 07:07:33;;;;;;;;;2.75;1.00;;;;;;;;5030512;28;46520;-80
2022/01/03 07:09:58;;;;;;;;;5.67;1.00;;;;;;;;5031170;28;45492;-80
2022/01/03 07:12:23;;;;;;;;;3.00;2.00;;;;;;;;5022902;28;47720;-78
2022/01/03 07:19:59;;;;;;;;;5.25;2.00;;;;;;;;5030639;28;45771;-80
2022/01/03 07:22:25;;;;;;;;;5.75;3.00;;;;;;;;5009744;28;45453;-80
2022/01/03 07:24:51;;;;;;;;;6.50;2.50;;;;;;;;5027937;28;45539;-80
2022/01/03 07:27:16;;;;;;;;;5.50;2.50;;;;;;;;5024065;28;46176;-78
2022/01/03 07:29:42;;;;;;;;;8.00;2.33;;;;;;;;5010698;28;45388;-78
2022/01/03 07:32:07;;;;;;;;;4.75;2.25;;;;;;;;5031179;28;45492;-79
2022/01/03 07:34:33;;;;;;;;;2.75;1.00;;;;;;;;5030016;28;45516;-78
2022/01/03 07:36:58;;;;;;;;;7.00;2.00;;;;;;;;5031967;28;46253;-78
2022/01/03 07:39:23;;;;;;;;;3.33;2.00;;;;;;;;5024708;28;45401;-78
2022/01/03 07:41:48;;;;;;;;;10.75;2.00;;;;;;;;5027695;28;45602;-78
2022/01/03 07:44:14;;;;;;;;;8.33;2.00;;;;;;;;5026531;28;45596;-81
2022/01/03 07:46:39;;;;;;;;;8.67;3.00;;;;;;;;5027511;28;45574;-80
2022/01/03 07:49:04;;;;;;;;;6.00;3.33;;;;;;;;5029793;28;45472;-80
2022/01/03 07:51:30;;;;;;;;;3.33;0.00;;;;;;;;5030322;28;45592;-80
2022/01/03 07:53:55;;;;;;;;;4.50;2.00;;;;;;;;5031628;28;45491;-80
2022/01/03 07:56:20;;;;;;;;;6.00;2.00;;;;;;;;5031042;28;46452;-78
2022/01/03 07:58:46;;;;;;;;;7.00;3.67;;;;;;;;5031200;28;45409;-80
2022/01/03 08:01:11;;;;;;;;;6.75;2.25;;;;;;;;5031883;28;45823;-80
2022/01/03 08:03:37;;;;;;;;;5.00;2.75;;;;;;;;5031034;28;48251;-78
2022/01/03 08:06:02;;;;;;;;;6.33;1.67;;;;;;;;5030050;28;45661;-78
2022/01/03 08:08:27;;;;;;;;;6.50;3.00;;;;;;;;5014324;28;45847;-78
2022/01/03 08:10:52;;;;;;;;;3.00;1.00;;;;;;;;5010875;28;46662;-80
2022/01/03 08:13:18;;;;;;;;;6.00;3.00;;;;;;;;5029139;28;45662;-78
2022/01/03 08:15:43;;;;;;;;;2.00;2.00;;;;;;;;5015462;28;46973;-78
2022/01/03 08:18:08;;;;;;;;;3.00;2.00;;;;;;;;5030698;28;45603;-78
2022/01/03 08:20:34;;;;;;;;;5.67;1.00;;;;;;;;5031604;28;45959;-78
2022/01/03 08:22:59;;;;;;;;;3.25;2.25;;;;;;;;5025055;28;45540;-78
2022/01/03 08:25:25;;;;;;;;;4.33;1.33;;;;;;;;5026666;28;46208;-78
2022/01/03 08:27:50;;;;;;;;;6.75;3.00;;;;;;;;5015294;28;45900;-78
2022/01/03 08:30:16;;;;;;;;;8.00;1.00;;;;;;;;5032367;28;45541;-81
2022/01/03 08:32:41;;;;;;;;;6.50;2.50;;;;;;;;5035127;28;45905;-80
2022/01/03 08:35:06;;;;;;;;;6.00;2.00;;;;;;;;5030953;28;46716;-80
2022/01/03 08:37:32;;;;;;;;;5.75;3.00;;;;;;;;5020742;28;45537;-80
2022/01/03 08:40:00;;;;;;;;;2.75;2.00;;;;;;;;5017315;28;45525;-80
2022/01/03 08:42:26;;;;;;;;;3.25;2.00;;;;;;;;5024389;28;45881;-78
2022/01/03 08:44:51;;;;;;;;;7.50;2.00;;;;;;;;5039020;28;45607;-80
2022/01/03 08:47:16;;;;;;;;;9.33;1.33;;;;;;;;5033108;28;45468;-80
2022/01/03 08:49:41;;;;;;;;;7.00;2.00;;;;;;;;5033549;28;45617;-80
2022/01/03 08:52:06;;;;;;;;;9.25;3.50;;;;;;;;5015952;28;45837;-77
2022/01/03 08:54:32;;;;;;;;;4.67;2.00;;;;;;;;5015920;28;46209;-80
2022/01/03 08:56:57;;;;;;;;;4.50;0.75;;;;;;;;5028832;28;45555;-79
2022/01/03 08:59:22;;;;;;;;;5.00;3.33;;;;;;;;5013380;28;45453;-80
2022/01/03 09:01:48;;;;;;;;;3.50;1.00;;;;;;;;5031245;28;45345;-80
2022/01/03 09:04:13;;;;;;;;;4.50;3.00;;;;;;;;5021675;28;45483;-79
2022/01/03 09:06:38;;;;;;;;;3.67;2.00;;;;;;;;5026447;28;45541;-79
2022/01/03 09:09:05;;;;;;;;;10.67;2.00;;;;;;;;5020453;28;45450;-79
2022/01/03 09:11:30;;;;;;;;;7.50;2.25;;;;;;;;5005014;28;45632;-79
2022/01/03 09:13:56;;;;;;;;;4.00;2.00;;;;;;;;5026384;28;45463;-79
2022/01/03 09:16:21;;;;;;;;;4.00;1.67;;;;;;;;5032519;28;45729;-79
2022/01/03 09:18:46;;;;;;;;;7.67;3.00;;;;;;;;5033249;28;45521;-80
2022/01/03 09:21:11;;;;;;;;;7.00;2.67;;;;;;;;5033661;28;45553;-78
2022/01/03 09:23:41;;;;;;;;;3.25;2.00;;;;;;;;5027975;28;46066;-79
2022/01/03 09:28:53;;;;;;;;;8.50;2.00;;;;;;;;5028465;28;45642;-80
2022/01/03 09:31:27;;;;;;;;;3.75;2.00;;;;;;;;5014434;28;45442;-79
2022/01/03 09:33:53;;;;;;;;;3.00;1.00;;;;;;;;5030648;28;45605;-79
2022/01/03 09:36:18;;;;;;;;;4.00;2.00;;;;;;;;5015705;28;45882;-79
2022/01/03 09:38:44;;;;;;;;;3.00;2.00;;;;;;;;5002959;28;45379;-80
2022/01/03 09:41:10;;;;;;;;;10.67;2.00;;;;;;;;5028631;28;45487;-78
2022/01/03 09:43:48;;;;;;;;;6.75;3.00;;;;;;;;5041321;28;46140;-78
2022/01/03 09:46:18;;;;;;;;;8.25;2.00;;;;;;;;5033077;28;45781;-77
2022/01/03 09:48:45;;;;;;;;;4.25;1.25;;;;;;;;5032878;28;45585;-78
2022/01/03 09:51:11;;;;;;;;;5.25;2.00;;;;;;;;5015524;28;45477;-80
2022/01/03 09:53:38;;;;;;;;;2.50;1.75;;;;;;;;5032952;28;46092;-79
2022/01/03 09:56:05;;;;;;;;;5.75;2.00;;;;;;;;5031675;28;45976;-80
2022/01/03 09:58:31;;;;;;;;;5.25;2.00;;;;;;;;5029870;28;45603;-78
2022/01/03 10:00:56;;;;;;;;;5.50;2.50;;;;;;;;5003252;28;45678;-78
2022/01/03 10:03:21;;;;;;;;;4.00;1.25;;;;;;;;5033744;28;45432;-78
2022/01/03 10:05:46;;;;;;;;;4.00;1.75;;;;;;;;5019184;28;45592;-78
2022/01/03 10:08:12;;;;;;;;;6.00;3.00;;;;;;;;5032215;28;45580;-78
2022/01/03 10:10:37;;;;;;;;;2.33;2.00;;;;;;;;5033730;28;48383;-78
2022/01/03 10:13:02;;;;;;;;;7.75;1.25;;;;;;;;5049929;28;47293;-79
2022/01/03 10:15:28;;;;;;;;;3.33;3.00;;;;;;;;5032293;28;45694;-78
2022/01/03 10:17:53;;;;;;;;;4.25;2.25;;;;;;;;5031355;28;45899;-77
2022/01/03 10:20:18;;;;;;;;;7.00;5.00;;;;;;;;5021841;28;45599;-78
2022/01/03 10:22:43;;;;;;;;;4.00;1.00;;;;;;;;5026583;28;46153;-77
2022/01/03 10:25:11;;;;;;;;;6.25;1.00;;;;;;;;5031394;28;45461;-77
2022/01/03 10:27:42;;;;;;;;;7.00;2.50;;;;;;;;5026782;28;45738;-80
2022/01/03 10:30:08;;;;;;;;;3.50;2.50;;;;;;;;5022333;28;45343;-79
2022/01/03 10:32:34;;;;;;;;;8.25;1.75;;;;;;;;5025008;28;45406;-79
2022/01/03 10:35:13;;;;;;;;;6.50;2.50;;;;;;;;5026425;28;46089;-79
2022/01/03 10:37:38;;;;;;;;;4.00;2.50;;;;;;;;5032524;28;45579;-80
2022/01/03 10:40:17;;;;;;;;;4.75;1.00;;;;;;;;5037945;28;45408;-80
2022/01/03 10:42:43;;;;;;;;;4.25;1.50;;;;;;;;5019379;28;46820;-80
2022/01/03 10:45:08;;;;;;;;;6.75;1.25;;;;;;;;5015997;28;45722;-80
2022/01/03 10:47:34;;;;;;;;;3.75;1.50;;;;;;;;5036828;28;45904;-80
2022/01/03 10:50:11;;;;;;;;;10.25;3.00;;;;;;;;5012700;28;45556;-80
2022/01/03 10:52:39;;;;;;;;;3.50;2.50;;;;;;;;5028661;28;45523;-80
2022/01/03 10:55:11;;;;;;;;;5.00;3.00;;;;;;;;5029010;28;45932;-79
2022/01/03 10:57:45;;;;;;;;;5.00;1.00;;;;;;;;5013690;28;45560;-82
2022/01/03 11:00:18;;;;;;;;;6.25;3.00;;;;;;;;5018240;28;45525;-80
2022/01/03 11:03:04;;;;;;;;;3.00;1.50;;;;;;;;5031713;28;45634;-79
2022/01/03 11:05:40;;;;;;;;;5.00;2.25;;;;;;;;5031069;28;45481;-79
2022/01/03 11:10:44;;;;;;;;;6.50;1.75;;;;;;;;5027661;28;45571;-80
2022/01/03 11:13:14;;;;;;;;;3.00;3.00;;;;;;;;5020594;28;46231;-80
2022/01/03 11:15:42;;;;;;;;;4.25;1.25;;;;;;;;5001792;28;45477;-80
2022/01/03 11:18:12;;;;;;;;;5.00;2.50;;;;;;;;5026615;28;45448;-80
2022/01/03 11:20:38;;;;;;;;;4.00;2.00;;;;;;;;5030245;28;45536;-80
2022/01/03 11:23:03;;;;;;;;;6.25;2.50;;;;;;;;5014873;28;48210;-79
2022/01/03 11:25:29;;;;;;;;;3.00;2.00;;;;;;;;5030662;28;45547;-79
2022/01/03 11:27:55;;;;;;;;;5.25;2.25;;;;;;;;5031104;28;45574;-80
2022/01/03 11:30:20;;;;;;;;;5.33;1.67;;;;;;;;5032131;28;45581;-79
2022/01/03 11:32:48;;;;;;;;;9.50;3.25;;;;;;;;5032108;28;45449;-81
2022/01/03 11:35:14;;;;;;;;;8.25;1.50;;;;;;;;5016860;28;46159;-82
2022/01/03 11:37:40;;;;;;;;;7.50;1.50;;;;;;;;5027776;28;45728;-81
2022/01/03 11:40:08;;;;;;;;;4.50;2.00;;;;;;;;5030533;28;45738;-80
2022/01/03 11:42:34;;;;;;;;;3.00;2.00;;;;;;;;5015840;28;46211;-80
2022/01/03 11:44:59;;;;;;;;;7.50;2.50;;;;;;;;5016017;28;45549;-81
2022/01/03 11:47:27;;;;;;;;;7.25;2.25;;;;;;;;5030174;28;45782;-81
2022/01/03 11:49:52;;;;;;;;;7.00;1.50;;;;;;;;5010840;28;46176;-83
2022/01/03 11:52:17;;;;;;;;;3.75;1.50;;;;;;;;5024183;28;46768;-77
2022/01/03 11:54:43;;;;;;;;;4.25;1.50;;;;;;;;5021361;28;45900;-80
2022/01/03 11:57:14;;;;;;;;;8.75;1.75;;;;;;;;5024554;28;45592;-80
2022/01/03 12:05:38;;;;;;;;;5.75;1.50;;;;;;;;4982520;28;45779;-78
2022/01/03 12:08:04;;;;;;;;;4.50;2.25;;;;;;;;4972454;28;45568;-79
2022/01/03 12:10:43;;;;;;;;;1.00;1.00;;;;;;;;4972740;28;45362;-79
2022/01/03 12:13:08;;;;;;;;;1.50;1.00;;;;;;;;4981164;28;46752;-79
2022/01/03 12:15:39;;;;;;;;;4.67;0.67;;;;;;;;4969885;28;45557;-80
2022/01/03 12:18:06;;;;;;;;;5.50;1.75;;;;;;;;4969090;28;45517;-79
2022/01/03 12:20:41;;;;;;;;;2.75;1.50;;;;;;;;4971543;28;45600;-78
2022/01/03 12:23:07;;;;;;;;;1.50;0.75;;;;;;;;4971403;28;45814;-78
2022/01/03 12:25:33;;;;;;;;;3.75;1.25;;;;;;;;4969439;28;45830;-78
2022/01/03 12:28:00;;;;;;;;;4.75;2.00;;;;;;;;4972357;28;45623;-79
2022/01/03 12:30:28;;;;;;;;;2.75;1.25;;;;;;;;4974601;28;45565;-79
2022/01/03 12:33:06;;;;;;;;;4.75;1.50;;;;;;;;4975604;28;46268;-79
2022/01/03 12:35:31;;;;;;;;;4.50;2.25;;;;;;;;4973119;28;45857;-67
2022/01/03 12:38:02;;;;;;;;;4.25;1.25;;;;;;;;4976106;28;45661;-67
2022/01/03 12:40:30;;;;;;;;;6.50;1.00;;;;;;;;4971047;28;46124;-68
2022/01/03 12:43:15;;;;;;;;;2.00;1.00;;;;;;;;5009916;28;46996;-67
2022/01/03 12:45:40;;;;;;;;;2.25;0.50;;;;;;;;5031480;28;45717;-69
2022/01/03 12:48:08;;;;;;;;;2.67;1.00;;;;;;;;5037635;28;45324;-66
2022/01/03 12:50:44;;;;;;;;;1.25;1.00;;;;;;;;5035275;28;45947;-66
2022/01/03 12:53:10;;;;;;;;;2.75;1.75;;;;;;;;5031300;28;46429;-67
2022/01/03 12:55:39;;;;;;;;;2.75;0.50;;;;;;;;5033206;28;45489;-67
2022/01/03 12:58:13;;;;;;;;;4.50;1.50;;;;;;;;5030129;28;45472;-66
2022/01/03 13:00:45;;;;;;;;;1.00;0.50;;;;;;;;5029833;28;45592;-67
2022/01/03 13:03:22;;;;;;;;;3.50;1.00;;;;;;;;5033818;28;45623;-66
2022/01/03 13:06:05;;;;;;;;;9.00;1.00;;;;;;;;5023757;28;46086;-78
2022/01/03 13:08:41;;;;;;;;;4.00;1.25;;;;;;;;5014764;28;45616;-80
2022/01/03 13:11:08;;;;;;;;;5.50;1.25;;;;;;;;5028091;28;45649;-79
2022/01/03 13:13:34;;;;;;;;;3.00;1.50;;;;;;;;5016754;28;47517;-80
2022/01/03 13:15:59;;;;;;;;;0.75;0.75;;;;;;;;5033090;28;45562;-79
2022/01/03 13:18:24;;;;;;;;;5.00;1.00;;;;;;;;5032574;28;45647;-80
2022/01/03 13:20:57;;;;;;;;;6.00;1.00;;;;;;;;5032477;28;45364;-79
2022/01/03 13:23:24;;;;;;;;;4.25;2.00;;;;;;;;5027314;28;46527;-79
2022/01/03 13:25:49;;;;;;;;;1.00;0.25;;;;;;;;5028089;28;45800;-79
2022/01/03 13:28:14;;;;;;;;;2.50;1.00;;;;;;;;5028747;28;45587;-79
2022/01/03 13:30:58;;;;;;;;;2.33;1.67;;;;;;;;5020997;28;46399;-79
2022/01/03 13:33:24;;;;;;;;;3.25;0.75;;;;;;;;5021686;28;46316;-79
2022/01/03 13:36:03;;;;;;;;;3.00;1.00;;;;;;;;5009972;28;45879;-79
2022/01/03 13:38:28;;;;;;;;;3.00;1.75;;;;;;;;5031621;28;45366;-79
2022/01/03 13:40:54;;;;;;;;;3.25;1.75;;;;;;;;5026928;28;45999;-80
2022/01/03 13:43:29;;;;;;;;;3.50;1.00;;;;;;;;5019163;28;46370;-80
2022/01/03 13:51:08;;;;;;;;;5.00;1.00;;;;;;;;5024597;28;45472;-79
2022/01/03 13:53:33;;;;;;;;;3.50;0.75;;;;;;;;5010246;28;48193;-79
2022/01/03 13:55:59;;;;;;;;;5.33;0.67;;;;;;;;5001403;28;45553;-78
2022/01/03 13:58:25;;;;;;;;;2.50;1.75;;;;;;;;5020307;28;45563;-79
2022/01/03 14:00:55;;;;;;;;;2.25;1.00;;;;;;;;5022450;28;45452;-79
2022/01/03 14:03:21;;;;;;;;;6.25;1.25;;;;;;;;5017022;28;46004;-78
2022/01/03 14:05:48;;;;;;;;;6.25;2.00;;;;;;;;5025083;28;45661;-78
2022/01/03 14:08:17;;;;;;;;;2.00;0.75;;;;;;;;5022239;28;45733;-79
2022/01/03 14:10:44;;;;;;;;;3.25;1.25;;;;;;;;5008691;28;45595;-79
2022/01/03 14:13:11;;;;;;;;;1.75;1.75;;;;;;;;5009427;28;46395;-78
2022/01/03 14:15:37;;;;;;;;;1.50;0.75;;;;;;;;5016694;28;46046;-79
2022/01/03 14:18:02;;;;;;;;;2.25;0.75;;;;;;;;5002195;28;46854;-80
2022/01/03 14:20:28;;;;;;;;;7.50;0.75;;;;;;;;5025259;28;45553;-80
2022/01/03 14:22:53;;;;;;;;;3.67;0.67;;;;;;;;5018405;28;46010;-79
2022/01/03 14:25:23;;;;;;;;;2.00;1.00;;;;;;;;5024115;28;45466;-79
2022/01/03 14:27:57;;;;;;;;;1.50;1.50;;;;;;;;5029239;28;45760;-78
2022/01/03 14:30:29;;;;;;;;;7.50;1.00;;;;;;;;5029265;28;45592;-79
2022/01/03 14:32:57;;;;;;;;;6.25;1.25;;;;;;;;5015989;28;47727;-78
2022/01/03 14:35:29;;;;;;;;;3.75;1.75;;;;;;;;5031066;28;45469;-78
2022/01/03 14:38:10;;;;;;;;;2.50;2.50;;;;;;;;5034463;28;45501;-79
2022/01/03 14:40:36;;;;;;;;;2.00;1.50;;;;;;;;5034622;28;46273;-78
2022/01/03 14:43:02;;;;;;;;;3.00;1.25;;;;;;;;5029298;28;46295;-78
2022/01/03 14:45:31;;;;;;;;;1.75;0.25;;;;;;;;5032418;28;47056;-78
2022/01/03 14:47:59;;;;;;;;;1.50;0.75;;;;;;;;5030785;28;45714;-78
2022/01/03 14:50:24;;;;;;;;;2.00;1.50;;;;;;;;5033503;28;45433;-78
2022/01/03 14:52:55;;;;;;;;;4.50;2.25;;;;;;;;5028965;28;46681;-78
2022/01/03 14:55:27;;;;;;;;;6.25;1.75;;;;;;;;5028025;28;45995;-78
2022/01/03 14:57:55;;;;;;;;;2.50;1.00;;;;;;;;5010506;28;48460;-79
2022/01/03 15:00:20;;;;;;;;;4.50;2.00;;;;;;;;5028651;28;45358;-78
2022/01/03 15:02:46;;;;;;;;;2.25;0.50;;;;;;;;5031651;28;46126;-78
2022/01/03 15:05:13;;;;;;;;;4.00;0.75;;;;;;;;5031768;28;45572;-78
2022/01/03 15:07:39;;;;;;;;;4.50;2.00;;;;;;;;5003952;28;45563;-80
2022/01/03 15:10:05;;;;;;;;;2.75;0.75;;;;;;;;5030441;28;45742;-79
2022/01/03 15:12:31;;;;;;;;;1.00;0.00;;;;;;;;5027932;28;45599;-79
2022/01/03 15:14:56;;;;;;;;;4.75;1.50;;;;;;;;5013509;28;45721;-78
2022/01/03 15:17:21;;;;;;;;;4.33;0.67;;;;;;;;5029682;28;45440;-81
2022/01/03 15:19:46;;;;;;;;;0.67;0.67;;;;;;;;5010349;28;46938;-78